sensor_id;sensor_type;location;lat;lon;timestamp;P1;durP1;ratioP1;P2;durP2;ratioP2
10469;SDS011;5282;47.052;15.458;2023-03-01T00:00:13;18.50;;;14.10;;
10469;SDS011;5282;47.052;15.458;2023-03-01T00:02:41;15.97;;;13.73;;
10469;SDS011;5282;47.052;15.458;2023-03-01T00:05:10;14.93;;;13.00;;
10469;SDS011;5282;47.052;15.458;2023-03-01T00:07:40;16.37;;;13.30;;
10469;SDS011;5282;47.052;15.458;2023-03-01T00:10:08;15.83;;;13.73;;
10469;SDS011;5282;47.052;15.458;2023-03-01T00:12:36;14.90;;;12.83;;
10469;SDS011;5282;47.052;15.458;2023-03-01T00:15:06;17.67;;;13.03;;
10469;SDS011;5282;47.052;15.458;2023-03-01T00:17:34;15.13;;;12.97;;
10469;SDS011;5282;47.052;15.458;2023-03-01T00:20:10;18.10;;;13.70;;
10469;SDS011;5282;47.052;15.458;2023-03-01T00:22:38;14.30;;;12.80;;
10469;SDS011;5282;47.052;15.458;2023-03-01T00:25:05;15.23;;;13.17;;
10469;SDS011;5282;47.052;15.458;2023-03-01T00:27:33;17.67;;;13.57;;
10469;SDS011;5282;47.052;15.458;2023-03-01T00:29:59;16.17;;;13.27;;
10469;SDS011;5282;47.052;15.458;2023-03-01T00:32:28;15.90;;;13.37;;
10469;SDS011;5282;47.052;15.458;2023-03-01T00:34:55;17.87;;;14.30;;
10469;SDS011;5282;47.052;15.458;2023-03-01T00:37:23;16.13;;;14.03;;
10469;SDS011;5282;47.052;15.458;2023-03-01T00:39:50;18.83;;;13.77;;
10469;SDS011;5282;47.052;15.458;2023-03-01T00:42:17;18.20;;;14.43;;
10469;SDS011;5282;47.052;15.458;2023-03-01T00:44:44;16.87;;;14.17;;
10469;SDS011;5282;47.052;15.458;2023-03-01T00:47:11;17.17;;;13.63;;
10469;SDS011;5282;47.052;15.458;2023-03-01T00:49:39;15.80;;;13.40;;
10469;SDS011;5282;47.052;15.458;2023-03-01T00:52:06;16.10;;;13.77;;
10469;SDS011;5282;47.052;15.458;2023-03-01T00:54:34;19.10;;;14.27;;
10469;SDS011;5282;47.052;15.458;2023-03-01T00:57:01;18.83;;;14.00;;
10469;SDS011;5282;47.052;15.458;2023-03-01T00:59:28;17.90;;;14.93;;
10469;SDS011;5282;47.052;15.458;2023-03-01T01:01:56;18.40;;;14.93;;
10469;SDS011;5282;47.052;15.458;2023-03-01T01:04:30;16.77;;;14.30;;
10469;SDS011;5282;47.052;15.458;2023-03-01T01:07:13;18.03;;;14.13;;
10469;SDS011;5282;47.052;15.458;2023-03-01T01:09:50;17.67;;;13.97;;
10469;SDS011;5282;47.052;15.458;2023-03-01T01:12:30;19.50;;;15.00;;
10469;SDS011;5282;47.052;15.458;2023-03-01T01:15:14;19.40;;;14.50;;
10469;SDS011;5282;47.052;15.458;2023-03-01T01:17:56;15.83;;;14.03;;
10469;SDS011;5282;47.052;15.458;2023-03-01T01:20:31;18.70;;;15.27;;
10469;SDS011;5282;47.052;15.458;2023-03-01T01:23:08;15.20;;;13.53;;
10469;SDS011;5282;47.052;15.458;2023-03-01T01:25:40;16.57;;;13.83;;
10469;SDS011;5282;47.052;15.458;2023-03-01T01:28:26;18.23;;;14.73;;
10469;SDS011;5282;47.052;15.458;2023-03-01T01:31:13;18.83;;;14.17;;
10469;SDS011;5282;47.052;15.458;2023-03-01T01:33:47;16.53;;;14.43;;
10469;SDS011;5282;47.052;15.458;2023-03-01T01:36:16;18.93;;;14.73;;
10469;SDS011;5282;47.052;15.458;2023-03-01T01:38:59;18.00;;;15.23;;
10469;SDS011;5282;47.052;15.458;2023-03-01T01:41:48;18.43;;;15.10;;
10469;SDS011;5282;47.052;15.458;2023-03-01T01:44:23;18.13;;;13.80;;
10469;SDS011;5282;47.052;15.458;2023-03-01T01:47:07;20.33;;;15.40;;
10469;SDS011;5282;47.052;15.458;2023-03-01T01:49:47;18.53;;;14.17;;
10469;SDS011;5282;47.052;15.458;2023-03-01T01:52:23;18.53;;;14.93;;
10469;SDS011;5282;47.052;15.458;2023-03-01T01:55:10;16.67;;;13.83;;
10469;SDS011;5282;47.052;15.458;2023-03-01T01:57:45;16.57;;;13.87;;
10469;SDS011;5282;47.052;15.458;2023-03-01T02:00:34;17.67;;;14.27;;
10469;SDS011;5282;47.052;15.458;2023-03-01T02:03:10;15.93;;;13.10;;
10469;SDS011;5282;47.052;15.458;2023-03-01T02:06:04;16.80;;;13.40;;
10469;SDS011;5282;47.052;15.458;2023-03-01T02:08:39;18.13;;;14.47;;
10469;SDS011;5282;47.052;15.458;2023-03-01T02:11:13;16.47;;;13.67;;
10469;SDS011;5282;47.052;15.458;2023-03-01T02:13:42;17.23;;;13.73;;
10469;SDS011;5282;47.052;15.458;2023-03-01T02:16:12;15.53;;;13.67;;
10469;SDS011;5282;47.052;15.458;2023-03-01T02:18:42;16.93;;;14.07;;
10469;SDS011;5282;47.052;15.458;2023-03-01T02:21:15;16.10;;;14.03;;
10469;SDS011;5282;47.052;15.458;2023-03-01T02:23:53;14.80;;;13.20;;
10469;SDS011;5282;47.052;15.458;2023-03-01T02:26:25;14.47;;;12.97;;
10469;SDS011;5282;47.052;15.458;2023-03-01T02:29:00;15.33;;;13.13;;
10469;SDS011;5282;47.052;15.458;2023-03-01T02:31:31;16.83;;;13.03;;
10469;SDS011;5282;47.052;15.458;2023-03-01T02:34:11;15.40;;;12.53;;
10469;SDS011;5282;47.052;15.458;2023-03-01T02:36:43;14.53;;;12.77;;
10469;SDS011;5282;47.052;15.458;2023-03-01T02:39:14;16.60;;;13.47;;
10469;SDS011;5282;47.052;15.458;2023-03-01T02:41:47;15.47;;;13.07;;
10469;SDS011;5282;47.052;15.458;2023-03-01T02:44:21;13.87;;;12.47;;
10469;SDS011;5282;47.052;15.458;2023-03-01T02:46:49;15.77;;;13.07;;
10469;SDS011;5282;47.052;15.458;2023-03-01T02:49:21;15.10;;;12.80;;
10469;SDS011;5282;47.052;15.458;2023-03-01T02:54:58;14.97;;;13.00;;
10469;SDS011;5282;47.052;15.458;2023-03-01T02:57:33;15.83;;;12.87;;
10469;SDS011;5282;47.052;15.458;2023-03-01T03:00:04;14.17;;;12.63;;
10469;SDS011;5282;47.052;15.458;2023-03-01T03:02:43;14.33;;;12.83;;
10469;SDS011;5282;47.052;15.458;2023-03-01T03:05:11;14.03;;;12.37;;
10469;SDS011;5282;47.052;15.458;2023-03-01T03:07:48;13.47;;;12.07;;
10469;SDS011;5282;47.052;15.458;2023-03-01T03:10:19;16.10;;;13.00;;
10469;SDS011;5282;47.052;15.458;2023-03-01T03:12:50;15.37;;;12.67;;
10469;SDS011;5282;47.052;15.458;2023-03-01T03:15:19;14.57;;;12.60;;
10469;SDS011;5282;47.052;15.458;2023-03-01T03:18:02;14.37;;;12.87;;
10469;SDS011;5282;47.052;15.458;2023-03-01T03:20:35;15.53;;;13.27;;
10469;SDS011;5282;47.052;15.458;2023-03-01T03:23:18;15.13;;;12.60;;
10469;SDS011;5282;47.052;15.458;2023-03-01T03:25:47;13.57;;;12.13;;
10469;SDS011;5282;47.052;15.458;2023-03-01T03:28:35;13.47;;;12.07;;
10469;SDS011;5282;47.052;15.458;2023-03-01T03:31:26;14.50;;;12.57;;
10469;SDS011;5282;47.052;15.458;2023-03-01T03:34:05;13.60;;;11.97;;
10469;SDS011;5282;47.052;15.458;2023-03-01T03:36:40;14.50;;;11.60;;
10469;SDS011;5282;47.052;15.458;2023-03-01T03:39:09;13.10;;;11.30;;
10469;SDS011;5282;47.052;15.458;2023-03-01T03:41:55;14.57;;;12.57;;
10469;SDS011;5282;47.052;15.458;2023-03-01T03:44:23;14.70;;;12.40;;
10469;SDS011;5282;47.052;15.458;2023-03-01T03:46:52;14.17;;;12.23;;
10469;SDS011;5282;47.052;15.458;2023-03-01T03:49:19;12.90;;;11.53;;
10469;SDS011;5282;47.052;15.458;2023-03-01T03:51:46;14.63;;;12.23;;
10469;SDS011;5282;47.052;15.458;2023-03-01T03:54:13;13.77;;;12.33;;
10469;SDS011;5282;47.052;15.458;2023-03-01T03:56:41;13.63;;;12.13;;
10469;SDS011;5282;47.052;15.458;2023-03-01T03:59:09;14.03;;;12.53;;
10469;SDS011;5282;47.052;15.458;2023-03-01T04:01:36;13.27;;;11.87;;
10469;SDS011;5282;47.052;15.458;2023-03-01T04:04:07;15.53;;;13.33;;
10469;SDS011;5282;47.052;15.458;2023-03-01T04:06:35;15.13;;;12.60;;
10469;SDS011;5282;47.052;15.458;2023-03-01T04:09:03;13.83;;;11.57;;
10469;SDS011;5282;47.052;15.458;2023-03-01T04:11:33;13.23;;;11.67;;
10469;SDS011;5282;47.052;15.458;2023-03-01T04:14:00;14.13;;;12.37;;
10469;SDS011;5282;47.052;15.458;2023-03-01T04:16:34;13.83;;;11.87;;
10469;SDS011;5282;47.052;15.458;2023-03-01T04:19:01;15.03;;;12.80;;
10469;SDS011;5282;47.052;15.458;2023-03-01T04:21:29;14.83;;;12.40;;
10469;SDS011;5282;47.052;15.458;2023-03-01T04:23:59;14.20;;;12.63;;
10469;SDS011;5282;47.052;15.458;2023-03-01T04:26:28;14.17;;;11.70;;
10469;SDS011;5282;47.052;15.458;2023-03-01T04:28:55;15.17;;;13.00;;
10469;SDS011;5282;47.052;15.458;2023-03-01T04:31:23;17.23;;;13.17;;
10469;SDS011;5282;47.052;15.458;2023-03-01T04:33:55;13.90;;;12.33;;
10469;SDS011;5282;47.052;15.458;2023-03-01T04:36:22;14.50;;;12.47;;
10469;SDS011;5282;47.052;15.458;2023-03-01T04:38:56;12.80;;;11.43;;
10469;SDS011;5282;47.052;15.458;2023-03-01T04:41:24;13.73;;;12.30;;
10469;SDS011;5282;47.052;15.458;2023-03-01T04:43:51;14.87;;;12.87;;
10469;SDS011;5282;47.052;15.458;2023-03-01T04:46:19;14.13;;;12.60;;
10469;SDS011;5282;47.052;15.458;2023-03-01T04:48:54;14.17;;;12.27;;
10469;SDS011;5282;47.052;15.458;2023-03-01T04:51:21;14.87;;;12.30;;
10469;SDS011;5282;47.052;15.458;2023-03-01T04:53:48;13.97;;;12.50;;
10469;SDS011;5282;47.052;15.458;2023-03-01T04:56:17;16.10;;;13.00;;
10469;SDS011;5282;47.052;15.458;2023-03-01T04:58:44;16.13;;;13.00;;
10469;SDS011;5282;47.052;15.458;2023-03-01T05:01:12;13.13;;;11.33;;
10469;SDS011;5282;47.052;15.458;2023-03-01T05:03:41;13.20;;;11.67;;
10469;SDS011;5282;47.052;15.458;2023-03-01T05:06:12;13.60;;;12.27;;
10469;SDS011;5282;47.052;15.458;2023-03-01T05:08:42;13.97;;;12.30;;
10469;SDS011;5282;47.052;15.458;2023-03-01T05:11:10;15.17;;;12.60;;
10469;SDS011;5282;47.052;15.458;2023-03-01T05:13:39;17.47;;;13.67;;
10469;SDS011;5282;47.052;15.458;2023-03-01T05:16:06;15.10;;;13.43;;
10469;SDS011;5282;47.052;15.458;2023-03-01T05:18:36;15.13;;;12.77;;
10469;SDS011;5282;47.052;15.458;2023-03-01T05:21:04;17.33;;;14.33;;
10469;SDS011;5282;47.052;15.458;2023-03-01T05:23:34;17.33;;;13.17;;
10469;SDS011;5282;47.052;15.458;2023-03-01T05:26:02;17.63;;;13.17;;
10469;SDS011;5282;47.052;15.458;2023-03-01T05:28:31;17.23;;;12.97;;
10469;SDS011;5282;47.052;15.458;2023-03-01T05:31:00;16.93;;;13.80;;
10469;SDS011;5282;47.052;15.458;2023-03-01T05:33:29;19.17;;;13.73;;
10469;SDS011;5282;47.052;15.458;2023-03-01T05:35:59;16.50;;;13.87;;
10469;SDS011;5282;47.052;15.458;2023-03-01T05:38:27;15.93;;;13.10;;
10469;SDS011;5282;47.052;15.458;2023-03-01T05:40:54;16.37;;;13.37;;
10469;SDS011;5282;47.052;15.458;2023-03-01T05:43:22;18.83;;;13.73;;
10469;SDS011;5282;47.052;15.458;2023-03-01T05:45:50;16.70;;;14.17;;
10469;SDS011;5282;47.052;15.458;2023-03-01T05:48:18;19.30;;;13.50;;
10469;SDS011;5282;47.052;15.458;2023-03-01T05:50:46;18.53;;;13.83;;
10469;SDS011;5282;47.052;15.458;2023-03-01T05:53:14;17.13;;;13.53;;
10469;SDS011;5282;47.052;15.458;2023-03-01T05:55:45;20.00;;;13.87;;
10469;SDS011;5282;47.052;15.458;2023-03-01T05:58:13;17.10;;;14.93;;
10469;SDS011;5282;47.052;15.458;2023-03-01T06:00:43;16.90;;;14.13;;
10469;SDS011;5282;47.052;15.458;2023-03-01T06:03:11;19.47;;;14.37;;
10469;SDS011;5282;47.052;15.458;2023-03-01T06:05:44;19.73;;;13.77;;
10469;SDS011;5282;47.052;15.458;2023-03-01T06:08:11;14.77;;;13.27;;
10469;SDS011;5282;47.052;15.458;2023-03-01T06:10:39;19.60;;;14.53;;
10469;SDS011;5282;47.052;15.458;2023-03-01T06:13:09;19.50;;;14.70;;
10469;SDS011;5282;47.052;15.458;2023-03-01T06:15:36;21.20;;;13.80;;
10469;SDS011;5282;47.052;15.458;2023-03-01T06:18:03;20.20;;;14.27;;
10469;SDS011;5282;47.052;15.458;2023-03-01T06:20:30;19.23;;;14.60;;
10469;SDS011;5282;47.052;15.458;2023-03-01T06:22:59;19.50;;;16.00;;
10469;SDS011;5282;47.052;15.458;2023-03-01T06:25:26;25.57;;;17.10;;
10469;SDS011;5282;47.052;15.458;2023-03-01T06:27:53;25.57;;;17.27;;
10469;SDS011;5282;47.052;15.458;2023-03-01T06:30:21;22.23;;;15.73;;
10469;SDS011;5282;47.052;15.458;2023-03-01T06:32:49;20.90;;;15.67;;
10469;SDS011;5282;47.052;15.458;2023-03-01T06:35:16;23.77;;;15.77;;
10469;SDS011;5282;47.052;15.458;2023-03-01T06:37:45;23.87;;;16.97;;
10469;SDS011;5282;47.052;15.458;2023-03-01T06:40:14;23.40;;;17.20;;
10469;SDS011;5282;47.052;15.458;2023-03-01T06:42:43;22.93;;;17.17;;
10469;SDS011;5282;47.052;15.458;2023-03-01T06:45:13;27.90;;;17.57;;
10469;SDS011;5282;47.052;15.458;2023-03-01T06:47:41;21.23;;;16.13;;
10469;SDS011;5282;47.052;15.458;2023-03-01T06:50:08;18.83;;;14.93;;
10469;SDS011;5282;47.052;15.458;2023-03-01T06:52:35;20.87;;;15.60;;
10469;SDS011;5282;47.052;15.458;2023-03-01T06:55:03;21.40;;;16.00;;
10469;SDS011;5282;47.052;15.458;2023-03-01T06:57:33;24.17;;;15.40;;
10469;SDS011;5282;47.052;15.458;2023-03-01T06:59:59;25.83;;;15.50;;
10469;SDS011;5282;47.052;15.458;2023-03-01T07:02:28;18.37;;;14.50;;
10469;SDS011;5282;47.052;15.458;2023-03-01T07:04:54;20.83;;;14.73;;
10469;SDS011;5282;47.052;15.458;2023-03-01T07:07:21;19.20;;;14.80;;
10469;SDS011;5282;47.052;15.458;2023-03-01T07:09:49;22.13;;;15.33;;
10469;SDS011;5282;47.052;15.458;2023-03-01T07:12:16;19.47;;;14.77;;
10469;SDS011;5282;47.052;15.458;2023-03-01T07:14:44;18.13;;;14.40;;
10469;SDS011;5282;47.052;15.458;2023-03-01T07:17:11;20.17;;;14.83;;
10469;SDS011;5282;47.052;15.458;2023-03-01T07:19:40;25.70;;;15.13;;
10469;SDS011;5282;47.052;15.458;2023-03-01T07:22:07;21.83;;;15.43;;
10469;SDS011;5282;47.052;15.458;2023-03-01T07:24:34;22.53;;;16.10;;
10469;SDS011;5282;47.052;15.458;2023-03-01T07:27:01;18.47;;;14.73;;
10469;SDS011;5282;47.052;15.458;2023-03-01T07:29:31;25.57;;;14.83;;
10469;SDS011;5282;47.052;15.458;2023-03-01T07:32:00;17.07;;;13.43;;
10469;SDS011;5282;47.052;15.458;2023-03-01T07:34:27;14.13;;;12.47;;
10469;SDS011;5282;47.052;15.458;2023-03-01T07:36:53;16.67;;;12.10;;
10469;SDS011;5282;47.052;15.458;2023-03-01T07:39:20;13.43;;;12.03;;
10469;SDS011;5282;47.052;15.458;2023-03-01T07:41:50;14.47;;;12.73;;
10469;SDS011;5282;47.052;15.458;2023-03-01T07:44:17;14.17;;;12.27;;
10469;SDS011;5282;47.052;15.458;2023-03-01T07:46:45;16.70;;;13.10;;
10469;SDS011;5282;47.052;15.458;2023-03-01T07:49:16;13.33;;;11.93;;
10469;SDS011;5282;47.052;15.458;2023-03-01T07:51:43;15.63;;;11.90;;
10469;SDS011;5282;47.052;15.458;2023-03-01T07:54:10;14.10;;;12.20;;
10469;SDS011;5282;47.052;15.458;2023-03-01T07:56:36;15.00;;;11.80;;
10469;SDS011;5282;47.052;15.458;2023-03-01T07:59:03;12.90;;;11.50;;
10469;SDS011;5282;47.052;15.458;2023-03-01T08:01:30;13.77;;;11.13;;
10469;SDS011;5282;47.052;15.458;2023-03-01T08:03:57;17.70;;;11.50;;
10469;SDS011;5282;47.052;15.458;2023-03-01T08:06:26;15.13;;;11.97;;
10469;SDS011;5282;47.052;15.458;2023-03-01T08:08:52;14.47;;;12.53;;
10469;SDS011;5282;47.052;15.458;2023-03-01T08:11:20;14.83;;;12.67;;
10469;SDS011;5282;47.052;15.458;2023-03-01T08:13:48;19.13;;;12.43;;
10469;SDS011;5282;47.052;15.458;2023-03-01T08:16:15;14.10;;;12.27;;
10469;SDS011;5282;47.052;15.458;2023-03-01T08:18:42;14.27;;;11.83;;
10469;SDS011;5282;47.052;15.458;2023-03-01T08:21:10;15.67;;;12.57;;
10469;SDS011;5282;47.052;15.458;2023-03-01T08:23:40;15.07;;;11.97;;
10469;SDS011;5282;47.052;15.458;2023-03-01T08:26:08;18.53;;;12.70;;
10469;SDS011;5282;47.052;15.458;2023-03-01T08:28:37;15.27;;;12.17;;
10469;SDS011;5282;47.052;15.458;2023-03-01T08:31:12;12.60;;;11.30;;
10469;SDS011;5282;47.052;15.458;2023-03-01T08:33:40;14.33;;;12.03;;
10469;SDS011;5282;47.052;15.458;2023-03-01T08:36:07;18.53;;;12.53;;
10469;SDS011;5282;47.052;15.458;2023-03-01T08:38:34;13.77;;;11.63;;
10469;SDS011;5282;47.052;15.458;2023-03-01T08:41:03;13.40;;;12.00;;
10469;SDS011;5282;47.052;15.458;2023-03-01T08:43:32;14.23;;;12.13;;
10469;SDS011;5282;47.052;15.458;2023-03-01T08:45:59;15.60;;;11.80;;
10469;SDS011;5282;47.052;15.458;2023-03-01T08:48:27;13.73;;;12.33;;
10469;SDS011;5282;47.052;15.458;2023-03-01T08:50:54;14.27;;;11.20;;
10469;SDS011;5282;47.052;15.458;2023-03-01T08:53:22;16.00;;;12.53;;
10469;SDS011;5282;47.052;15.458;2023-03-01T08:55:50;19.10;;;12.37;;
10469;SDS011;5282;47.052;15.458;2023-03-01T08:58:18;14.30;;;12.80;;
10469;SDS011;5282;47.052;15.458;2023-03-01T09:00:47;13.87;;;12.07;;
10469;SDS011;5282;47.052;15.458;2023-03-01T09:03:14;17.27;;;12.40;;
10469;SDS011;5282;47.052;15.458;2023-03-01T09:05:41;14.90;;;12.47;;
10469;SDS011;5282;47.052;15.458;2023-03-01T09:08:11;14.77;;;11.37;;
10469;SDS011;5282;47.052;15.458;2023-03-01T09:10:38;13.77;;;12.37;;
10469;SDS011;5282;47.052;15.458;2023-03-01T09:13:05;14.57;;;12.97;;
10469;SDS011;5282;47.052;15.458;2023-03-01T09:15:33;19.47;;;13.73;;
10469;SDS011;5282;47.052;15.458;2023-03-01T09:18:02;19.67;;;13.50;;
10469;SDS011;5282;47.052;15.458;2023-03-01T09:20:30;17.00;;;13.43;;
10469;SDS011;5282;47.052;15.458;2023-03-01T09:22:57;15.53;;;12.90;;
10469;SDS011;5282;47.052;15.458;2023-03-01T09:25:25;15.40;;;13.17;;
10469;SDS011;5282;47.052;15.458;2023-03-01T09:27:54;16.97;;;12.90;;
10469;SDS011;5282;47.052;15.458;2023-03-01T09:30:21;15.70;;;13.33;;
10469;SDS011;5282;47.052;15.458;2023-03-01T09:32:50;16.33;;;13.70;;
10469;SDS011;5282;47.052;15.458;2023-03-01T09:35:17;19.00;;;13.83;;
10469;SDS011;5282;47.052;15.458;2023-03-01T09:37:47;16.77;;;14.23;;
10469;SDS011;5282;47.052;15.458;2023-03-01T09:40:15;16.40;;;13.00;;
10469;SDS011;5282;47.052;15.458;2023-03-01T09:42:46;17.90;;;14.03;;
10469;SDS011;5282;47.052;15.458;2023-03-01T09:45:20;16.57;;;13.57;;
10469;SDS011;5282;47.052;15.458;2023-03-01T09:47:57;17.63;;;14.50;;
10469;SDS011;5282;47.052;15.458;2023-03-01T09:50:26;16.07;;;14.30;;
10469;SDS011;5282;47.052;15.458;2023-03-01T09:53:00;18.10;;;14.93;;
10469;SDS011;5282;47.052;15.458;2023-03-01T09:55:30;19.87;;;14.50;;
10469;SDS011;5282;47.052;15.458;2023-03-01T09:58:00;15.73;;;14.00;;
10469;SDS011;5282;47.052;15.458;2023-03-01T10:00:48;18.83;;;14.67;;
10469;SDS011;5282;47.052;15.458;2023-03-01T10:03:19;17.33;;;14.47;;
10469;SDS011;5282;47.052;15.458;2023-03-01T10:05:53;16.87;;;14.23;;
10469;SDS011;5282;47.052;15.458;2023-03-01T10:08:36;18.43;;;14.50;;
10469;SDS011;5282;47.052;15.458;2023-03-01T10:11:15;18.97;;;14.63;;
10469;SDS011;5282;47.052;15.458;2023-03-01T10:13:48;18.70;;;14.73;;
10469;SDS011;5282;47.052;15.458;2023-03-01T10:16:22;24.30;;;15.03;;
10469;SDS011;5282;47.052;15.458;2023-03-01T10:18:57;17.23;;;14.67;;
10469;SDS011;5282;47.052;15.458;2023-03-01T10:21:28;18.80;;;14.87;;
10469;SDS011;5282;47.052;15.458;2023-03-01T10:23:57;18.77;;;14.87;;
10469;SDS011;5282;47.052;15.458;2023-03-01T10:26:47;22.50;;;15.40;;
10469;SDS011;5282;47.052;15.458;2023-03-01T10:29:19;20.83;;;15.43;;
10469;SDS011;5282;47.052;15.458;2023-03-01T10:31:52;16.07;;;14.43;;
10469;SDS011;5282;47.052;15.458;2023-03-01T10:34:22;21.67;;;14.83;;
10469;SDS011;5282;47.052;15.458;2023-03-01T10:36:56;19.53;;;14.30;;
10469;SDS011;5282;47.052;15.458;2023-03-01T10:39:27;19.17;;;15.37;;
10469;SDS011;5282;47.052;15.458;2023-03-01T10:41:56;18.97;;;15.37;;
10469;SDS011;5282;47.052;15.458;2023-03-01T10:44:35;20.20;;;15.10;;
10469;SDS011;5282;47.052;15.458;2023-03-01T10:47:11;18.23;;;14.63;;
10469;SDS011;5282;47.052;15.458;2023-03-01T10:49:48;21.60;;;15.17;;
10469;SDS011;5282;47.052;15.458;2023-03-01T10:52:19;17.80;;;14.23;;
10469;SDS011;5282;47.052;15.458;2023-03-01T10:54:51;22.57;;;15.23;;
10469;SDS011;5282;47.052;15.458;2023-03-01T10:57:25;18.90;;;14.87;;
10469;SDS011;5282;47.052;15.458;2023-03-01T11:00:17;20.53;;;15.37;;
10469;SDS011;5282;47.052;15.458;2023-03-01T11:02:51;19.77;;;15.07;;
10469;SDS011;5282;47.052;15.458;2023-03-01T11:05:30;23.43;;;16.10;;
10469;SDS011;5282;47.052;15.458;2023-03-01T11:07:59;18.40;;;15.10;;
10469;SDS011;5282;47.052;15.458;2023-03-01T11:10:29;21.17;;;15.10;;
10469;SDS011;5282;47.052;15.458;2023-03-01T11:13:08;28.00;;;17.07;;
10469;SDS011;5282;47.052;15.458;2023-03-01T11:15:40;19.03;;;14.97;;
10469;SDS011;5282;47.052;15.458;2023-03-01T11:18:18;17.77;;;15.40;;
10469;SDS011;5282;47.052;15.458;2023-03-01T11:20:48;17.93;;;15.37;;
10469;SDS011;5282;47.052;15.458;2023-03-01T11:23:19;18.50;;;16.13;;
10469;SDS011;5282;47.052;15.458;2023-03-01T11:25:51;22.83;;;16.27;;
10469;SDS011;5282;47.052;15.458;2023-03-01T11:28:21;18.73;;;14.23;;
10469;SDS011;5282;47.052;15.458;2023-03-01T11:30:51;22.97;;;15.77;;
10469;SDS011;5282;47.052;15.458;2023-03-01T11:33:24;18.10;;;15.50;;
10469;SDS011;5282;47.052;15.458;2023-03-01T11:36:03;30.27;;;17.27;;
10469;SDS011;5282;47.052;15.458;2023-03-01T11:38:36;22.97;;;16.83;;
10469;SDS011;5282;47.052;15.458;2023-03-01T11:41:06;19.77;;;15.23;;
10469;SDS011;5282;47.052;15.458;2023-03-01T11:43:36;22.53;;;15.40;;
10469;SDS011;5282;47.052;15.458;2023-03-01T11:49:21;18.93;;;15.70;;
10469;SDS011;5282;47.052;15.458;2023-03-01T11:52:02;23.30;;;15.57;;
10469;SDS011;5282;47.052;15.458;2023-03-01T11:54:40;17.83;;;15.97;;
10469;SDS011;5282;47.052;15.458;2023-03-01T11:57:16;27.83;;;15.87;;
10469;SDS011;5282;47.052;15.458;2023-03-01T11:59:57;18.77;;;15.03;;
10469;SDS011;5282;47.052;15.458;2023-03-01T12:06:02;19.93;;;14.67;;
10469;SDS011;5282;47.052;15.458;2023-03-01T12:08:56;17.73;;;14.23;;
10469;SDS011;5282;47.052;15.458;2023-03-01T12:11:32;20.40;;;15.47;;
10469;SDS011;5282;47.052;15.458;2023-03-01T12:14:11;20.50;;;15.20;;
10469;SDS011;5282;47.052;15.458;2023-03-01T12:16:58;18.17;;;15.10;;
10469;SDS011;5282;47.052;15.458;2023-03-01T12:19:39;21.03;;;14.97;;
10469;SDS011;5282;47.052;15.458;2023-03-01T12:22:23;22.50;;;15.60;;
10469;SDS011;5282;47.052;15.458;2023-03-01T12:25:10;16.23;;;14.50;;
10469;SDS011;5282;47.052;15.458;2023-03-01T12:28:00;18.70;;;14.43;;
10469;SDS011;5282;47.052;15.458;2023-03-01T12:30:53;18.93;;;15.00;;
10469;SDS011;5282;47.052;15.458;2023-03-01T12:33:35;16.77;;;13.90;;
10469;SDS011;5282;47.052;15.458;2023-03-01T12:36:18;18.33;;;14.80;;
10469;SDS011;5282;47.052;15.458;2023-03-01T12:38:59;18.60;;;14.90;;
10469;SDS011;5282;47.052;15.458;2023-03-01T12:41:50;16.43;;;14.63;;
10469;SDS011;5282;47.052;15.458;2023-03-01T12:44:42;19.83;;;14.43;;
10469;SDS011;5282;47.052;15.458;2023-03-01T12:47:29;22.27;;;14.83;;
10469;SDS011;5282;47.052;15.458;2023-03-01T12:50:17;18.50;;;14.23;;
10469;SDS011;5282;47.052;15.458;2023-03-01T12:52:47;19.63;;;14.03;;
10469;SDS011;5282;47.052;15.458;2023-03-01T12:55:21;15.80;;;14.10;;
10469;SDS011;5282;47.052;15.458;2023-03-01T12:57:59;19.67;;;14.27;;
10469;SDS011;5282;47.052;15.458;2023-03-01T13:00:31;18.97;;;14.50;;
10469;SDS011;5282;47.052;15.458;2023-03-01T13:03:05;18.50;;;14.97;;
10469;SDS011;5282;47.052;15.458;2023-03-01T13:05:56;15.63;;;13.83;;
10469;SDS011;5282;47.052;15.458;2023-03-01T13:08:36;18.27;;;14.37;;
10469;SDS011;5282;47.052;15.458;2023-03-01T13:11:11;17.03;;;13.23;;
10469;SDS011;5282;47.052;15.458;2023-03-01T13:13:45;17.97;;;14.50;;
10469;SDS011;5282;47.052;15.458;2023-03-01T13:16:21;16.27;;;13.43;;
10469;SDS011;5282;47.052;15.458;2023-03-01T13:19:06;17.23;;;14.17;;
10469;SDS011;5282;47.052;15.458;2023-03-01T13:21:39;15.33;;;12.87;;
10469;SDS011;5282;47.052;15.458;2023-03-01T13:27:20;15.60;;;12.47;;
10469;SDS011;5282;47.052;15.458;2023-03-01T13:29:56;15.60;;;13.00;;
10469;SDS011;5282;47.052;15.458;2023-03-01T13:32:29;15.17;;;13.00;;
10469;SDS011;5282;47.052;15.458;2023-03-01T13:34:58;18.50;;;13.07;;
10469;SDS011;5282;47.052;15.458;2023-03-01T13:37:28;17.03;;;13.63;;
10469;SDS011;5282;47.052;15.458;2023-03-01T13:40:04;18.40;;;12.47;;
10469;SDS011;5282;47.052;15.458;2023-03-01T13:42:53;16.27;;;11.37;;
10469;SDS011;5282;47.052;15.458;2023-03-01T13:45:25;15.90;;;12.60;;
10469;SDS011;5282;47.052;15.458;2023-03-01T13:48:02;20.10;;;13.60;;
10469;SDS011;5282;47.052;15.458;2023-03-01T13:50:36;16.83;;;12.80;;
10469;SDS011;5282;47.052;15.458;2023-03-01T13:53:12;17.53;;;12.90;;
10469;SDS011;5282;47.052;15.458;2023-03-01T13:55:43;17.43;;;12.60;;
10469;SDS011;5282;47.052;15.458;2023-03-01T13:58:15;18.87;;;13.30;;
10469;SDS011;5282;47.052;15.458;2023-03-01T14:00:54;13.30;;;11.80;;
10469;SDS011;5282;47.052;15.458;2023-03-01T14:03:22;14.03;;;12.30;;
10469;SDS011;5282;47.052;15.458;2023-03-01T14:05:59;13.50;;;12.03;;
10469;SDS011;5282;47.052;15.458;2023-03-01T14:08:31;16.83;;;13.20;;
10469;SDS011;5282;47.052;15.458;2023-03-01T14:11:20;17.17;;;13.17;;
10469;SDS011;5282;47.052;15.458;2023-03-01T14:14:02;14.33;;;12.60;;
10469;SDS011;5282;47.052;15.458;2023-03-01T14:16:44;14.37;;;12.87;;
10469;SDS011;5282;47.052;15.458;2023-03-01T14:19:20;14.10;;;12.10;;
10469;SDS011;5282;47.052;15.458;2023-03-01T14:21:58;13.97;;;12.03;;
10469;SDS011;5282;47.052;15.458;2023-03-01T14:24:28;14.97;;;12.30;;
10469;SDS011;5282;47.052;15.458;2023-03-01T14:26:57;13.37;;;11.97;;
10469;SDS011;5282;47.052;15.458;2023-03-01T14:29:33;15.80;;;12.07;;
10469;SDS011;5282;47.052;15.458;2023-03-01T14:32:12;15.07;;;13.03;;
10469;SDS011;5282;47.052;15.458;2023-03-01T14:34:45;13.80;;;12.40;;
10469;SDS011;5282;47.052;15.458;2023-03-01T14:37:18;14.40;;;12.67;;
10469;SDS011;5282;47.052;15.458;2023-03-01T14:39:47;14.20;;;12.07;;
10469;SDS011;5282;47.052;15.458;2023-03-01T14:42:14;13.60;;;11.93;;
10469;SDS011;5282;47.052;15.458;2023-03-01T14:44:42;15.03;;;12.90;;
10469;SDS011;5282;47.052;15.458;2023-03-01T14:47:19;15.03;;;13.07;;
10469;SDS011;5282;47.052;15.458;2023-03-01T14:49:54;13.40;;;11.67;;
10469;SDS011;5282;47.052;15.458;2023-03-01T14:52:25;14.00;;;12.17;;
10469;SDS011;5282;47.052;15.458;2023-03-01T14:54:59;13.50;;;11.53;;
10469;SDS011;5282;47.052;15.458;2023-03-01T14:57:28;15.77;;;12.43;;
10469;SDS011;5282;47.052;15.458;2023-03-01T14:59:55;13.70;;;11.50;;
10469;SDS011;5282;47.052;15.458;2023-03-01T15:02:27;13.20;;;11.03;;